Latest Weather Observations for Fawkner Beacon

IDV60901

Issued at 1:01 am EST Thursday 18 July 2019 (issued every 10 minutes, with the page automatically refreshed every 10 minutes)

About weather observations | Map of Melbourne area stations | Latest observations for Melbourne area | Other Formats
Station Details ID: 086376 Name: FAWKNER BEACON Lat: -37.95 Lon: 144.93 Height: 17.0 m
Data from the previous 72 hours. | See also: Recent months at Fawkner Beacon
Date/Time
EST
Temp
°C
App
Temp
°C
Dew
Point
°C
Rel
Hum
%
Delta-T
°C
Wind Press
QNH
hPa
Press
MSL
hPa
Rain since
9am
mm
Dir  Spd
km/h
Gust
km/h
Spd
kts
Gust
kts
18/01:00am - - - - - WNW 26 32 14 17 - - -
18/12:30am - - - - - WNW 26 32 14 17 - - -
18/12:00am - - - - - W 30 39 16 21 - - -
 
Date/Time
EST
Temp
°C
App
Temp
°C
Dew
Point
°C
Rel
Hum
%
Delta-T
°C
Wind Press
QNH
hPa
Press
MSL
hPa
Rain since
9am
mm
Dir  Spd
km/h
Gust
km/h
Spd
kts
Gust
kts
17/11:30pm - - - - - WNW 24 30 13 16 - - -
17/11:00pm - - - - - WNW 26 30 14 16 - - -
17/10:30pm - - - - - WNW 22 26 12 14 - - -
17/10:00pm - - - - - W 28 32 15 17 - - -
17/09:30pm - - - - - W 28 35 15 19 - - -
17/09:00pm - - - - - W 24 30 13 16 - - -
17/08:30pm - - - - - W 28 32 15 17 - - -
17/08:00pm - - - - - W 26 30 14 16 - - -
17/07:30pm - - - - - W 32 39 17 21 - - -
17/07:00pm - - - - - W 37 44 20 24 - - -
17/06:30pm - - - - - W 41 50 22 27 - - -
17/06:00pm - - - - - W 35 46 19 25 - - -
17/05:30pm - - - - - W 30 39 16 21 - - -
17/05:00pm - - - - - W 39 48 21 26 - - -
17/04:30pm - - - - - W 35 48 19 26 - - -
17/04:00pm - - - - - WNW 35 44 19 24 - - -
17/03:30pm - - - - - WNW 28 35 15 19 - - -
17/03:00pm - - - - - WNW 30 39 16 21 - - -
17/02:30pm - - - - - WNW 37 48 20 26 - - -
17/02:00pm - - - - - NW 32 41 17 22 - - -
17/01:30pm - - - - - WNW 33 46 18 25 - - -
17/01:00pm - - - - - WNW 26 41 14 22 - - -
17/12:30pm - - - - - NW 24 30 13 16 - - -
17/12:00pm - - - - - NNW 22 30 12 16 - - -
17/11:30am - - - - - NNW 24 28 13 15 - - -
17/11:00am - - - - - N 28 33 15 18 - - -
17/10:30am - - - - - N 32 35 17 19 - - -
17/10:00am - - - - - NNW 30 33 16 18 - - -
17/09:30am - - - - - NNW 28 33 15 18 - - -
17/09:00am - - - - - NW 30 35 16 19 - - -
17/08:30am - - - - - NNW 28 35 15 19 - - -
17/08:00am - - - - - NNW 26 32 14 17 - - -
17/07:30am - - - - - NNW 28 32 15 17 - - -
17/07:00am - - - - - NW 26 32 14 17 - - -
17/06:30am - - - - - NW 24 28 13 15 - - -
17/06:00am - - - - - WNW 32 41 17 22 - - -
17/05:38am - - - - - NW 26 39 14 21 - - -
17/05:30am - - - - - NW 13 20 7 11 - - -
17/05:00am - - - - - NNW 13 17 7 9 - - -
17/04:30am - - - - - W 17 20 9 11 - - -
17/04:00am - - - - - W 28 32 15 17 - - -
17/03:30am - - - - - WNW 28 35 15 19 - - -
17/03:00am - - - - - WNW 26 30 14 16 - - -
17/02:30am - - - - - W 33 41 18 22 - - -
17/02:00am - - - - - W 28 33 15 18 - - -
17/01:30am - - - - - WNW 28 33 15 18 - - -
17/01:00am - - - - - W 37 43 20 23 - - -
17/12:51am - - - - - WNW 37 44 20 24 - - -
17/12:30am - - - - - NW 26 32 14 17 - - -
17/12:00am - - - - - NW 22 28 12 15 - - -
 
Date/Time
EST
Temp
°C
App
Temp
°C
Dew
Point
°C
Rel
Hum
%
Delta-T
°C
Wind Press
QNH
hPa
Press
MSL
hPa
Rain since
9am
mm
Dir  Spd
km/h
Gust
km/h
Spd
kts
Gust
kts
16/11:30pm - - - - - WNW 26 30 14 16 - - -
16/11:00pm - - - - - NW 20 22 11 12 - - -
16/10:30pm - - - - - WNW 24 28 13 15 - - -
16/10:00pm - - - - - WNW 24 28 13 15 - - -
16/09:30pm - - - - - WNW 30 33 16 18 - - -
16/09:00pm - - - - - W 19 22 10 12 - - -
16/08:30pm - - - - - W 28 33 15 18 - - -
16/08:00pm - - - - - WNW 22 32 12 17 - - -
16/07:30pm - - - - - W 26 32 14 17 - - -
16/07:00pm - - - - - W 26 32 14 17 - - -
16/06:30pm - - - - - W 28 32 15 17 - - -
16/06:00pm - - - - - W 26 30 14 16 - - -
16/05:30pm - - - - - W 28 33 15 18 - - -
16/05:00pm - - - - - W 30 33 16 18 - - -
16/04:30pm - - - - - W 28 33 15 18 - - -
16/04:00pm - - - - - W 28 33 15 18 - - -
16/03:30pm - - - - - W 28 30 15 16 - - -
16/03:00pm - - - - - W 26 30 14 16 - - -
16/02:30pm - - - - - W 28 32 15 17 - - -
16/02:00pm - - - - - W 28 33 15 18 - - -
16/01:30pm - - - - - WSW 28 32 15 17 - - -
16/01:00pm - - - - - WSW 28 32 15 17 - - -
16/12:30pm - - - - - WSW 28 33 15 18 - - -
16/12:00pm - - - - - WSW 28 33 15 18 - - -
16/11:30am - - - - - WSW 26 32 14 17 - - -
16/11:00am - - - - - W 26 32 14 17 - - -
16/10:30am - - - - - W 32 39 17 21 - - -
16/10:00am - - - - - W 30 41 16 22 - - -
16/09:30am - - - - - W 26 32 14 17 - - -
16/09:00am - - - - - W 33 41 18 22 - - -
16/08:30am - - - - - W 30 35 16 19 - - -
16/08:00am - - - - - W 24 32 13 17 - - -
16/07:30am - - - - - W 24 30 13 16 - - -
16/07:00am - - - - - WNW 20 24 11 13 - - -
16/06:30am - - - - - W 22 26 12 14 - - -
16/06:00am - - - - - W 24 26 13 14 - - -
16/05:30am - - - - - WSW 28 32 15 17 - - -
16/05:00am - - - - - WSW 17 22 9 12 - - -
16/04:30am - - - - - W 22 26 12 14 - - -
16/04:00am - - - - - WSW 24 28 13 15 - - -
16/03:30am - - - - - WSW 22 26 12 14 - - -
16/03:00am - - - - - WSW 24 30 13 16 - - -
16/02:30am - - - - - W 19 24 10 13 - - -
16/02:00am - - - - - W 20 24 11 13 - - -
16/01:30am - - - - - WSW 22 26 12 14 - - -
16/01:00am - - - - - WSW 22 26 12 14 - - -
16/12:30am - - - - - WSW 24 30 13 16 - - -
16/12:00am - - - - - W 26 30 14 16 - - -
 
Date/Time
EST
Temp
°C
App
Temp
°C
Dew
Point
°C
Rel
Hum
%
Delta-T
°C
Wind Press
QNH
hPa
Press
MSL
hPa
Rain since
9am
mm
Dir  Spd
km/h
Gust
km/h
Spd
kts
Gust
kts
15/11:30pm - - - - - W 28 33 15 18 - - -
15/11:00pm - - - - - W 26 30 14 16 - - -
15/10:30pm - - - - - WSW 26 32 14 17 - - -
15/10:00pm - - - - - W 24 32 13 17 - - -
15/09:30pm - - - - - W 28 33 15 18 - - -
15/09:00pm - - - - - W 22 26 12 14 - - -
15/08:30pm - - - - - WSW 28 33 15 18 - - -
15/08:00pm - - - - - WSW 32 39 17 21 - - -
15/07:30pm - - - - - WSW 32 39 17 21 - - -
15/07:00pm - - - - - WSW 33 41 18 22 - - -
15/06:30pm - - - - - WSW 32 41 17 22 - - -
15/06:00pm - - - - - WSW 33 43 18 23 - - -
15/05:30pm - - - - - W 35 44 19 24 - - -
15/05:00pm - - - - - W 28 32 15 17 - - -
15/04:30pm - - - - - WSW 28 30 15 16 - - -
15/04:00pm - - - - - W 30 33 16 18 - - -
15/03:30pm - - - - - WSW 28 35 15 19 - - -
15/03:00pm - - - - - WSW 28 32 15 17 - - -
15/02:30pm - - - - - WSW 24 30 13 16 - - -
15/02:00pm - - - - - WSW 26 30 14 16 - - -
15/01:30pm - - - - - W 24 30 13 16 - - -
15/01:00pm - - - - - WSW 22 28 12 15 - - -
15/12:30pm - - - - - WSW 22 26 12 14 - - -
15/12:00pm - - - - - WSW 24 30 13 16 - - -
15/11:30am - - - - - WSW 24 30 13 16 - - -
15/11:00am - - - - - W 30 33 16 18 - - -
15/10:30am - - - - - W 24 28 13 15 - - -
15/10:00am - - - - - WSW 26 30 14 16 - - -
15/09:30am - - - - - WSW 26 32 14 17 - - -
15/09:00am - - - - - WSW 30 35 16 19 - - -
15/08:30am - - - - - W 26 32 14 17 - - -
15/08:00am - - - - - W 26 32 14 17 - - -
15/07:30am - - - - - SW 32 39 17 21 - - -
15/07:00am - - - - - WSW 33 41 18 22 - - -
15/06:30am - - - - - WSW 30 39 16 21 - - -
15/06:00am - - - - - WSW 30 35 16 19 - - -
15/05:30am - - - - - WSW 32 41 17 22 - - -
15/05:00am - - - - - WSW 37 44 20 24 - - -
15/04:30am - - - - - WSW 39 44 21 24 - - -
15/04:00am - - - - - WSW 35 43 19 23 - - -
15/03:30am - - - - - WSW 39 50 21 27 - - -
15/03:00am - - - - - WSW 41 48 22 26 - - -
15/02:30am - - - - - WSW 43 50 23 27 - - -
15/02:00am - - - - - SW 41 48 22 26 - - -
15/01:30am - - - - - WSW 39 48 21 26 - - -

Latest Capital City Observations: Canberra | Sydney | Melbourne | Brisbane | Adelaide | Perth | Hobart | Darwin

Other formats

Comma delimited format used in spreadsheet applications
http://www.bom.gov.au/fwo/IDV60901/IDV60901.95872.axf

JavaScript Object Notation format (JSON) in row-major order
http://www.bom.gov.au/fwo/IDV60901/IDV60901.95872.json

Data quality

Most of these data are generated automatically and are frequently updated. Quality checks on data are not normally performed. It is possible for incorrect values to appear. Refer to information at About Latest Weather Observations and please check the disclaimer before using these data.